Hipolito Yrigoyen, Argentina
Current Conditions -  °F | °C
As of 6:00 PM on Saturday 25 Oct 2014 (Local Time) from SGEN Reporting Station
Few Clouds Few Clouds  
Wind Chill: 91°   Ceiling: Unl
Heat Index: 91°   Visibility: 6mi
Dew Point: 59°   Wind: 9mph
Humidity: 34%   Direction: 180°S
Pressure: 29.77"   Gusts: NA
Location:  27.08°S, 55.26°W
Report Text: SGEN 252100Z 18008KT 9999 FEW033 33/15 Q1008
Loading
Personal Weather Stations






























Interactive Weather Map
Tropical Storm Tracking
New forecast layout! Learn more

10-Day Weather Forecast

Advertisements
Track Severe Weather on mobile